createdAt,value
2022-12-08T00:01:22.696Z,41.08
2022-12-08T00:04:24.526Z,50.40
2022-12-08T00:07:45.098Z,48.25
2022-12-08T00:10:49.367Z,49.88
2022-12-08T00:13:51.384Z,55.50
2022-12-08T00:16:53.543Z,44.33
2022-12-08T00:19:55.170Z,45.58
2022-12-08T00:22:56.816Z,50.17
2022-12-08T00:26:03.238Z,52.65
2022-12-08T00:29:05.680Z,49.40
2022-12-08T00:32:07.441Z,47.17
2022-12-08T00:35:09.201Z,37.55
2022-12-08T00:38:10.793Z,39.58
2022-12-08T00:41:41.204Z,52.15
2022-12-08T00:44:44.609Z,46.15
2022-12-08T00:47:46.144Z,53.95
2022-12-08T00:50:47.759Z,47.83
2022-12-08T00:53:49.341Z,44.30
2022-12-08T00:56:51.288Z,44.05
2022-12-08T00:59:52.988Z,45.17
2022-12-08T01:02:54.588Z,39.47
2022-12-08T01:05:56.277Z,44.70
2022-12-08T01:08:57.918Z,44.38
2022-12-08T01:11:59.619Z,44.75
2022-12-08T01:15:02.764Z,44.90
2022-12-08T01:18:04.719Z,49.17
2022-12-08T01:21:07.556Z,47.47
2022-12-08T01:24:18.880Z,45.83
2022-12-08T01:27:20.446Z,48.75
2022-12-08T01:30:22.130Z,46.63
2022-12-08T01:33:23.822Z,49.22
2022-12-08T01:36:31.558Z,45.30
2022-12-08T01:39:33.131Z,41.83
2022-12-08T01:42:34.888Z,45.83
2022-12-08T01:45:36.676Z,49.88
2022-12-08T01:48:38.285Z,50.35
2022-12-08T01:51:55.580Z,49.63
2022-12-08T01:55:02.767Z,49.17
2022-12-08T01:58:22.534Z,55.00
2022-12-08T02:01:24.417Z,53.25
2022-12-08T02:04:25.990Z,56.22
2022-12-08T02:07:27.674Z,51.40
2022-12-08T02:10:31.353Z,52.70
2022-12-08T02:13:32.960Z,57.08
2022-12-08T02:16:45.694Z,57.03
2022-12-08T02:20:04.552Z,56.63
2022-12-08T02:23:24.066Z,49.95
2022-12-08T02:26:28.615Z,59.75
2022-12-08T02:30:01.233Z,56.90
2022-12-08T02:33:36.678Z,61.28
2022-12-08T02:36:53.436Z,64.53
2022-12-08T02:40:06.789Z,55.40
2022-12-08T02:43:16.512Z,61.58
2022-12-08T02:46:49.463Z,61.45
2022-12-08T02:49:50.988Z,66.30
2022-12-08T02:52:52.586Z,63.50
2022-12-08T02:56:18.567Z,71.13
2022-12-08T02:59:31.189Z,59.70
2022-12-08T03:02:55.121Z,66.40
2022-12-08T03:06:35.416Z,65.05
2022-12-08T03:09:47.692Z,62.17
2022-12-08T03:13:01.046Z,61.75
2022-12-08T03:16:07.161Z,70.75
2022-12-08T03:19:25.629Z,75.55
2022-12-08T03:22:28.831Z,66.22
2022-12-08T03:25:33.910Z,69.28
2022-12-08T03:28:35.512Z,68.55
2022-12-08T03:31:42.759Z,66.20
2022-12-08T03:34:48.167Z,72.93
2022-12-08T03:37:49.697Z,62.80
2022-12-08T03:41:09.789Z,67.18
2022-12-08T03:44:11.313Z,46.10
2022-12-08T03:47:14.274Z,60.13
2022-12-08T03:50:16.000Z,55.65
2022-12-08T03:53:17.544Z,63.58
2022-12-08T03:56:26.495Z,57.47
2022-12-08T03:59:28.053Z,59.97
2022-12-08T04:02:29.640Z,63.88
2022-12-08T04:05:31.239Z,60.22
2022-12-08T04:08:32.881Z,58.15
2022-12-08T04:11:34.418Z,58.05
2022-12-08T04:14:36.082Z,62.70
2022-12-08T04:17:37.659Z,56.22
2022-12-08T04:20:44.065Z,57.85
2022-12-08T04:23:46.528Z,61.00
2022-12-08T04:26:49.656Z,53.83
2022-12-08T04:29:51.305Z,53.80
2022-12-08T04:32:52.855Z,46.17
2022-12-08T04:35:54.455Z,50.47
2022-12-08T04:38:56.013Z,44.00
2022-12-08T04:41:57.615Z,47.67
2022-12-08T04:44:59.171Z,44.20
2022-12-08T04:48:02.025Z,44.17
2022-12-08T04:51:03.897Z,44.00
2022-12-08T04:54:05.530Z,45.10
2022-12-08T04:57:07.084Z,45.03
2022-12-08T05:00:09.361Z,48.55
2022-12-08T05:03:11.063Z,45.00
2022-12-08T05:06:14.063Z,46.67
2022-12-08T05:09:15.802Z,49.00
2022-12-08T05:12:17.408Z,42.53
2022-12-08T05:15:19.391Z,46.80
2022-12-08T05:18:20.974Z,42.45
2022-12-08T05:21:22.524Z,42.97
2022-12-08T05:24:24.210Z,44.03
2022-12-08T05:27:25.870Z,40.50
2022-12-08T05:30:27.565Z,45.55
2022-12-08T05:33:29.131Z,42.20
2022-12-08T05:36:31.210Z,47.00
2022-12-08T05:39:32.778Z,40.28
2022-12-08T05:42:34.379Z,40.08
2022-12-08T05:45:35.963Z,38.22
2022-12-08T05:48:37.665Z,40.65
2022-12-08T05:51:39.251Z,37.53
2022-12-08T05:54:40.793Z,34.13
2022-12-08T05:57:42.347Z,43.15
2022-12-08T06:00:44.620Z,38.10
2022-12-08T06:03:46.204Z,44.90
2022-12-08T06:06:48.078Z,39.20
2022-12-08T06:09:49.725Z,37.90
2022-12-08T06:12:51.329Z,37.35
2022-12-08T06:15:52.877Z,37.72
2022-12-08T06:18:55.199Z,39.90
2022-12-08T06:21:56.777Z,38.92
2022-12-08T06:24:58.364Z,41.40
2022-12-08T06:27:59.930Z,43.95
2022-12-08T06:31:11.021Z,40.25
2022-12-08T06:34:12.604Z,39.90
2022-12-08T06:37:14.182Z,39.35
2022-12-08T06:40:15.936Z,46.20
2022-12-08T06:43:18.615Z,41.25
2022-12-08T06:46:20.749Z,45.92
2022-12-08T06:49:22.408Z,49.67
2022-12-08T06:52:23.964Z,43.67
2022-12-08T06:55:51.243Z,48.15
2022-12-08T06:58:52.102Z,47.80
2022-12-08T07:01:54.487Z,43.05
2022-12-08T07:04:56.115Z,42.50
2022-12-08T07:07:57.670Z,42.45
2022-12-08T07:11:00.157Z,40.33
2022-12-08T07:15:12.472Z,41.40
2022-12-08T07:18:10.780Z,45.15
2022-12-08T07:21:15.136Z,42.55
2022-12-08T07:24:16.699Z,47.85
2022-12-08T07:27:18.334Z,43.67
2022-12-08T07:30:20.358Z,49.63
2022-12-08T07:33:21.899Z,45.75
2022-12-08T07:36:24.353Z,39.78
2022-12-08T07:39:25.985Z,42.97
2022-12-08T07:42:27.577Z,34.15
2022-12-08T07:45:31.725Z,36.45
2022-12-08T07:48:33.716Z,39.70
2022-12-08T07:51:35.302Z,38.83
2022-12-08T07:54:36.891Z,35.85
2022-12-08T07:57:38.458Z,31.25
2022-12-08T08:00:40.182Z,33.05
2022-12-08T08:03:41.791Z,30.30
2022-12-08T08:06:43.492Z,29.38
2022-12-08T08:09:45.680Z,34.22
2022-12-08T08:12:47.682Z,24.15
2022-12-08T08:15:49.325Z,24.50
2022-12-08T08:18:51.573Z,23.98
2022-12-08T08:21:53.167Z,23.63
2022-12-08T08:24:54.739Z,26.90
2022-12-08T08:27:56.491Z,28.58
2022-12-08T08:30:59.755Z,30.75
2022-12-08T08:34:06.173Z,31.58
2022-12-08T08:37:08.494Z,29.55
2022-12-08T08:40:10.580Z,30.10
2022-12-08T08:43:34.363Z,25.73
2022-12-08T08:46:39.591Z,26.33
2022-12-08T08:49:41.630Z,35.83
2022-12-08T08:52:43.416Z,29.90
2022-12-08T08:55:45.081Z,34.55
2022-12-08T08:58:51.232Z,31.20
2022-12-08T09:01:53.781Z,29.52
2022-12-08T09:04:55.504Z,27.45
2022-12-08T09:07:57.354Z,26.33
2022-12-08T09:11:01.740Z,32.05
2022-12-08T09:14:03.934Z,31.17
2022-12-08T09:17:06.670Z,31.33
2022-12-08T09:20:08.722Z,35.83
2022-12-08T09:23:10.279Z,34.42
2022-12-08T09:26:12.348Z,37.13
2022-12-08T09:29:14.593Z,40.80
2022-12-08T09:32:16.147Z,43.72
2022-12-08T09:35:17.757Z,47.05
2022-12-08T09:38:19.463Z,52.47
2022-12-08T09:41:37.600Z,48.55
2022-12-08T09:44:55.695Z,46.67
2022-12-08T09:48:07.101Z,52.33
2022-12-08T09:51:10.164Z,49.58
2022-12-08T09:54:36.038Z,48.28
2022-12-08T09:57:37.625Z,49.55
2022-12-08T10:00:39.673Z,51.53
2022-12-08T10:03:42.338Z,59.42
2022-12-08T10:07:27.735Z,49.95
2022-12-08T10:10:39.625Z,47.00
2022-12-08T10:13:55.160Z,49.10
2022-12-08T10:17:05.758Z,52.67
2022-12-08T10:20:19.412Z,51.78
2022-12-08T10:23:37.220Z,46.35
2022-12-08T10:26:39.570Z,46.60
2022-12-08T10:29:41.207Z,47.70
2022-12-08T10:32:46.818Z,38.15
2022-12-08T10:35:53.131Z,39.53
2022-12-08T10:38:54.740Z,39.88
2022-12-08T10:42:17.099Z,32.45
2022-12-08T10:45:41.838Z,39.10
2022-12-08T10:48:53.028Z,36.03
2022-12-08T10:51:54.602Z,38.92
2022-12-08T10:55:00.595Z,39.58
2022-12-08T10:58:02.161Z,38.83
2022-12-08T11:01:12.195Z,47.72
2022-12-08T11:04:44.480Z,42.00
2022-12-08T11:07:49.643Z,40.45
2022-12-08T11:10:51.229Z,49.13
2022-12-08T11:13:52.767Z,44.03
2022-12-08T11:17:04.737Z,49.38
2022-12-08T11:20:09.804Z,46.83
2022-12-08T11:23:24.666Z,47.65
2022-12-08T11:26:35.450Z,52.97
2022-12-08T11:32:42.429Z,59.92
2022-12-08T11:35:47.322Z,53.35
2022-12-08T11:38:52.059Z,57.92
2022-12-08T11:41:56.501Z,53.08
2022-12-08T11:44:59.858Z,56.13
2022-12-08T11:48:07.693Z,62.10
2022-12-08T11:51:18.226Z,55.90
2022-12-08T11:54:26.812Z,53.45
2022-12-08T11:57:29.997Z,53.63
2022-12-08T12:00:31.584Z,50.65
2022-12-08T12:03:40.546Z,49.83
2022-12-08T12:07:09.393Z,57.65
2022-12-08T12:10:26.166Z,50.70
2022-12-08T12:13:30.775Z,51.83
2022-12-08T12:16:35.600Z,49.92
2022-12-08T12:19:39.801Z,44.80
2022-12-08T12:22:43.560Z,56.60
2022-12-08T12:26:06.677Z,46.78
2022-12-08T12:29:18.804Z,47.67
2022-12-08T12:32:21.009Z,48.95
2022-12-08T12:35:31.853Z,48.53
2022-12-08T12:38:56.087Z,42.60
2022-12-08T12:42:00.450Z,39.85
2022-12-08T12:45:20.442Z,42.40
2022-12-08T12:48:25.207Z,37.33
2022-12-08T12:51:45.473Z,36.67
2022-12-08T12:54:52.853Z,39.40
2022-12-08T12:57:57.727Z,40.83
2022-12-08T13:01:11.948Z,34.10
2022-12-08T13:04:13.811Z,35.65
2022-12-08T13:07:25.012Z,34.03
2022-12-08T13:10:39.946Z,35.35
2022-12-08T13:14:03.145Z,36.45
2022-12-08T13:17:10.268Z,38.33
2022-12-08T13:20:22.446Z,36.80
2022-12-08T13:23:26.979Z,42.08
2022-12-08T13:26:28.731Z,48.92
2022-12-08T13:29:32.630Z,52.70
2022-12-08T13:36:37.434Z,52.95
2022-12-08T13:39:49.317Z,50.47
2022-12-08T13:43:43.428Z,44.20
2022-12-08T13:47:31.547Z,46.70
2022-12-08T13:51:51.159Z,47.53
2022-12-08T13:57:36.001Z,40.22
2022-12-08T14:00:37.717Z,46.33
2022-12-08T14:04:30.932Z,54.33
2022-12-08T14:10:30.284Z,34.70
2022-12-08T14:13:33.872Z,40.92
2022-12-08T14:16:43.642Z,34.45
2022-12-08T14:20:12.649Z,37.95
2022-12-08T14:23:17.411Z,33.30
2022-12-08T14:26:18.977Z,38.03
2022-12-08T14:29:37.996Z,39.13
2022-12-08T14:32:59.586Z,31.35
2022-12-08T14:36:01.220Z,30.83
2022-12-08T14:39:02.984Z,31.33
2022-12-08T14:42:06.478Z,31.45
2022-12-08T14:45:12.746Z,30.27
2022-12-08T14:48:26.707Z,34.42
2022-12-08T14:51:32.798Z,33.88
2022-12-08T14:54:34.444Z,34.83
2022-12-08T14:57:36.221Z,33.88
2022-12-08T15:00:46.447Z,37.13
2022-12-08T15:03:51.120Z,38.38
2022-12-08T15:07:04.805Z,33.35
2022-12-08T15:10:15.084Z,29.38
2022-12-08T15:13:22.599Z,40.75
2022-12-08T15:16:36.255Z,35.42
2022-12-08T15:19:37.921Z,33.97
2022-12-08T15:22:40.811Z,35.30
2022-12-08T15:25:42.734Z,39.42
2022-12-08T15:28:44.263Z,39.28
2022-12-08T15:31:46.576Z,37.05
2022-12-08T15:34:49.933Z,46.30
2022-12-08T15:37:54.073Z,39.78
2022-12-08T15:40:58.593Z,39.65
2022-12-08T15:44:00.350Z,54.42
2022-12-08T15:47:02.172Z,46.55
2022-12-08T15:50:04.895Z,46.45
2022-12-08T15:53:11.484Z,57.38
2022-12-08T15:56:29.580Z,56.92
2022-12-08T15:59:33.574Z,54.10
2022-12-08T16:03:11.467Z,56.95
2022-12-08T16:06:50.767Z,58.30
2022-12-08T16:09:28.333Z,52.17
2022-12-08T16:16:19.661Z,56.78
2022-12-08T16:19:21.255Z,59.10
2022-12-08T16:26:20.205Z,49.70
2022-12-08T16:29:19.736Z,46.15
2022-12-08T16:32:22.235Z,48.60
2022-12-08T16:35:24.318Z,44.00
2022-12-08T16:38:26.010Z,43.20
2022-12-08T16:41:46.504Z,43.13
2022-12-08T16:44:48.026Z,42.03
2022-12-08T16:47:53.699Z,47.83
2022-12-08T16:50:55.459Z,36.15
2022-12-08T16:53:58.180Z,41.40
2022-12-08T16:56:59.820Z,37.33
2022-12-08T17:00:01.435Z,34.28
2022-12-08T17:03:07.842Z,36.72
2022-12-08T17:06:15.796Z,41.65
2022-12-08T17:09:17.364Z,41.58
2022-12-08T17:12:18.911Z,39.92
2022-12-08T17:15:23.403Z,37.75
2022-12-08T17:18:24.923Z,41.38
2022-12-08T17:21:26.514Z,45.72
2022-12-08T17:24:29.112Z,39.30
2022-12-08T17:27:31.318Z,48.10
2022-12-08T17:30:32.927Z,48.67
2022-12-08T17:33:34.565Z,43.65
2022-12-08T17:36:36.768Z,45.08
2022-12-08T17:39:38.840Z,46.47
2022-12-08T17:42:43.050Z,46.83
2022-12-08T17:45:48.250Z,46.20
2022-12-08T17:48:55.423Z,42.95
2022-12-08T17:52:00.339Z,43.35
2022-12-08T17:55:02.958Z,46.35
2022-12-08T17:58:05.310Z,45.10
2022-12-08T18:01:10.873Z,46.75
2022-12-08T18:04:13.641Z,51.53
2022-12-08T18:07:15.249Z,50.63
2022-12-08T18:10:17.681Z,46.85
2022-12-08T18:13:19.382Z,53.38
2022-12-08T18:16:23.223Z,52.47
2022-12-08T18:19:24.919Z,46.08
2022-12-08T18:22:26.946Z,40.58
2022-12-08T18:25:28.507Z,49.28
2022-12-08T18:28:30.056Z,48.08
2022-12-08T18:31:31.677Z,50.78
2022-12-08T18:34:34.260Z,47.75
2022-12-08T18:37:35.878Z,50.97
2022-12-08T18:40:37.522Z,45.03
2022-12-08T18:43:39.479Z,48.08
2022-12-08T18:46:41.561Z,48.85
2022-12-08T18:49:43.546Z,51.78
2022-12-08T18:52:46.213Z,47.38
2022-12-08T18:55:50.734Z,45.70
2022-12-08T18:58:52.977Z,55.22
2022-12-08T19:01:54.539Z,44.88
2022-12-08T19:04:57.859Z,51.13
2022-12-08T19:07:59.449Z,52.22
2022-12-08T19:11:01.108Z,48.72
2022-12-08T19:14:07.167Z,49.97
2022-12-08T19:17:08.823Z,49.92
2022-12-08T19:20:11.437Z,52.30
2022-12-08T19:23:13.897Z,60.60
2022-12-08T19:26:15.451Z,66.53
2022-12-08T19:29:17.092Z,52.00
2022-12-08T19:32:18.657Z,58.33
2022-12-08T19:35:20.232Z,52.33
2022-12-08T19:38:21.864Z,51.53
2022-12-08T19:41:43.696Z,46.80
2022-12-08T19:44:54.614Z,59.22
2022-12-08T19:47:56.363Z,52.85
2022-12-08T19:50:58.488Z,56.35
2022-12-08T19:54:00.092Z,47.10
2022-12-08T19:57:01.948Z,57.92
2022-12-08T20:00:06.833Z,53.97
2022-12-08T20:03:09.026Z,49.92
2022-12-08T20:06:16.411Z,53.72
2022-12-08T20:09:18.431Z,55.58
2022-12-08T20:12:20.007Z,60.40
2022-12-08T20:15:21.704Z,59.25
2022-12-08T20:18:23.377Z,65.93
2022-12-08T20:21:27.323Z,80.97
2022-12-08T20:24:28.969Z,63.95
2022-12-08T20:27:30.533Z,70.20
2022-12-08T20:30:32.344Z,73.00
2022-12-08T20:33:34.068Z,58.10
2022-12-08T20:36:35.661Z,67.13
2022-12-08T20:39:38.308Z,65.07
2022-12-08T20:42:39.931Z,68.40
2022-12-08T20:45:41.493Z,64.97
2022-12-08T20:48:43.948Z,60.28
2022-12-08T20:51:46.337Z,60.63
2022-12-08T20:54:48.055Z,74.32
2022-12-08T21:01:12.568Z,72.65
2022-12-08T21:04:14.772Z,55.08
2022-12-08T21:07:16.677Z,51.90
2022-12-08T21:10:18.575Z,63.22
2022-12-08T21:13:20.303Z,71.30
2022-12-08T21:16:22.246Z,62.03
2022-12-08T21:19:24.938Z,62.72
2022-12-08T21:22:26.698Z,76.15
2022-12-08T21:25:28.510Z,70.43
2022-12-08T21:28:30.111Z,75.30
2022-12-08T21:31:31.966Z,62.17
2022-12-08T21:34:34.362Z,59.13
2022-12-08T21:37:36.130Z,66.85
2022-12-08T21:40:37.787Z,62.30
2022-12-08T21:43:39.772Z,75.47
2022-12-08T21:46:42.346Z,78.78
2022-12-08T21:49:44.133Z,73.78
2022-12-08T21:52:47.951Z,58.22
2022-12-08T21:55:49.959Z,65.32
2022-12-08T21:58:51.661Z,59.15
2022-12-08T22:01:53.402Z,62.08
2022-12-08T22:04:55.476Z,62.78
2022-12-08T22:07:58.469Z,60.45
2022-12-08T22:11:00.212Z,67.25
2022-12-08T22:14:01.980Z,63.85
2022-12-08T22:17:03.853Z,70.68
2022-12-08T22:20:08.625Z,68.20
2022-12-08T22:23:10.643Z,56.33
2022-12-08T22:26:13.276Z,70.10
2022-12-08T22:29:15.625Z,52.78
2022-12-08T22:32:17.453Z,60.00
2022-12-08T22:35:19.287Z,65.93
2022-12-08T22:38:21.013Z,55.15
2022-12-08T22:41:22.948Z,53.65
2022-12-08T22:44:24.676Z,55.90
2022-12-08T22:47:26.709Z,57.17
2022-12-08T22:50:29.531Z,45.67
2022-12-08T22:53:31.402Z,44.08
2022-12-08T22:56:32.976Z,49.03
2022-12-08T22:59:34.665Z,45.15
2022-12-08T23:02:37.544Z,44.78
2022-12-08T23:05:40.434Z,50.17
2022-12-08T23:08:42.311Z,52.17
2022-12-08T23:11:44.197Z,48.40
2022-12-08T23:14:46.064Z,55.03
2022-12-08T23:17:47.944Z,52.40
2022-12-08T23:20:49.563Z,44.53
2022-12-08T23:23:51.435Z,56.80
2022-12-08T23:26:53.143Z,52.78
2022-12-08T23:29:54.741Z,49.15
2022-12-08T23:32:56.606Z,51.17
2022-12-08T23:35:58.293Z,45.25
2022-12-08T23:38:59.932Z,56.58
2022-12-08T23:42:01.620Z,60.13
2022-12-08T23:45:04.486Z,43.00
2022-12-08T23:48:06.324Z,59.03
2022-12-08T23:51:07.919Z,55.88
2022-12-08T23:54:09.808Z,54.17
2022-12-08T23:57:11.412Z,51.00
